sensor_id;sensor_type;location;lat;lon;timestamp;temperature;humidity
52859;DHT22;38721;53.098;6.596;2023-09-19T00:00:34;14.00;99.90
52859;DHT22;38721;53.098;6.596;2023-09-19T00:03:00;13.90;99.90
52859;DHT22;38721;53.098;6.596;2023-09-19T00:05:26;13.90;99.90
52859;DHT22;38721;53.098;6.596;2023-09-19T00:07:54;13.90;99.90
52859;DHT22;38721;53.098;6.596;2023-09-19T00:10:30;13.80;99.90
52859;DHT22;38721;53.098;6.596;2023-09-19T00:12:57;13.80;99.90
52859;DHT22;38721;53.098;6.596;2023-09-19T00:15:26;13.70;99.90
52859;DHT22;38721;53.098;6.596;2023-09-19T00:17:57;13.70;99.90
52859;DHT22;38721;53.098;6.596;2023-09-19T00:20:23;13.60;99.90
52859;DHT22;38721;53.098;6.596;2023-09-19T00:22:50;13.60;99.90
52859;DHT22;38721;53.098;6.596;2023-09-19T00:25:19;13.60;99.90
52859;DHT22;38721;53.098;6.596;2023-09-19T00:27:46;13.50;99.90
52859;DHT22;38721;53.098;6.596;2023-09-19T00:30:13;13.50;99.90
52859;DHT22;38721;53.098;6.596;2023-09-19T00:32:45;13.40;99.90
52859;DHT22;38721;53.098;6.596;2023-09-19T00:35:16;13.40;99.90
52859;DHT22;38721;53.098;6.596;2023-09-19T00:37:42;13.30;99.90
52859;DHT22;38721;53.098;6.596;2023-09-19T00:40:09;13.30;99.90
52859;DHT22;38721;53.098;6.596;2023-09-19T00:42:48;13.30;99.90
52859;DHT22;38721;53.098;6.596;2023-09-19T00:45:16;13.20;99.90
52859;DHT22;38721;53.098;6.596;2023-09-19T00:47:46;13.20;99.90
52859;DHT22;38721;53.098;6.596;2023-09-19T00:50:17;13.20;99.90
52859;DHT22;38721;53.098;6.596;2023-09-19T00:52:44;13.20;99.90
52859;DHT22;38721;53.098;6.596;2023-09-19T00:55:11;13.10;99.90
52859;DHT22;38721;53.098;6.596;2023-09-19T00:57:39;13.20;99.90
52859;DHT22;38721;53.098;6.596;2023-09-19T01:00:06;13.20;99.90
52859;DHT22;38721;53.098;6.596;2023-09-19T01:02:34;13.10;99.90
52859;DHT22;38721;53.098;6.596;2023-09-19T01:05:00;13.10;99.90
52859;DHT22;38721;53.098;6.596;2023-09-19T01:07:30;13.20;99.90
52859;DHT22;38721;53.098;6.596;2023-09-19T01:10:04;13.10;99.90
52859;DHT22;38721;53.098;6.596;2023-09-19T01:15:57;13.10;99.90
52859;DHT22;38721;53.098;6.596;2023-09-19T01:27:05;13.00;99.90
52859;DHT22;38721;53.098;6.596;2023-09-19T01:29:42;12.90;99.90
52859;DHT22;38721;53.098;6.596;2023-09-19T01:32:11;12.90;99.90
52859;DHT22;38721;53.098;6.596;2023-09-19T01:37:17;12.70;99.90
52859;DHT22;38721;53.098;6.596;2023-09-19T01:39:52;12.70;99.90
52859;DHT22;38721;53.098;6.596;2023-09-19T01:42:41;12.70;99.90
52859;DHT22;38721;53.098;6.596;2023-09-19T01:47:41;12.60;99.90
52859;DHT22;38721;53.098;6.596;2023-09-19T01:50:32;12.60;99.90
52859;DHT22;38721;53.098;6.596;2023-09-19T01:53:19;12.50;99.90
52859;DHT22;38721;53.098;6.596;2023-09-19T01:55:48;12.40;99.90
52859;DHT22;38721;53.098;6.596;2023-09-19T01:58:31;12.50;99.90
52859;DHT22;38721;53.098;6.596;2023-09-19T02:01:00;12.50;99.90
52859;DHT22;38721;53.098;6.596;2023-09-19T02:03:29;12.40;99.90
52859;DHT22;38721;53.098;6.596;2023-09-19T02:05:56;12.40;99.90
52859;DHT22;38721;53.098;6.596;2023-09-19T02:08:22;12.40;99.90
52859;DHT22;38721;53.098;6.596;2023-09-19T02:10:52;12.40;99.90
52859;DHT22;38721;53.098;6.596;2023-09-19T02:13:22;12.30;99.90
52859;DHT22;38721;53.098;6.596;2023-09-19T02:15:53;12.30;99.90
52859;DHT22;38721;53.098;6.596;2023-09-19T02:18:19;12.30;99.90
52859;DHT22;38721;53.098;6.596;2023-09-19T02:20:44;12.30;99.90
52859;DHT22;38721;53.098;6.596;2023-09-19T02:23:12;12.30;99.90
52859;DHT22;38721;53.098;6.596;2023-09-19T02:25:38;12.30;99.90
52859;DHT22;38721;53.098;6.596;2023-09-19T02:28:04;12.30;99.90
52859;DHT22;38721;53.098;6.596;2023-09-19T02:30:31;12.30;99.90
52859;DHT22;38721;53.098;6.596;2023-09-19T02:32:57;12.30;99.90
52859;DHT22;38721;53.098;6.596;2023-09-19T02:35:23;12.30;99.90
52859;DHT22;38721;53.098;6.596;2023-09-19T02:37:51;12.30;99.90
52859;DHT22;38721;53.098;6.596;2023-09-19T02:40:17;12.30;99.90
52859;DHT22;38721;53.098;6.596;2023-09-19T02:42:47;12.30;99.90
52859;DHT22;38721;53.098;6.596;2023-09-19T02:45:16;12.30;99.90
52859;DHT22;38721;53.098;6.596;2023-09-19T02:47:46;12.20;99.90
52859;DHT22;38721;53.098;6.596;2023-09-19T02:50:13;12.20;99.90
52859;DHT22;38721;53.098;6.596;2023-09-19T02:52:42;12.20;99.90
52859;DHT22;38721;53.098;6.596;2023-09-19T02:55:14;12.20;99.90
52859;DHT22;38721;53.098;6.596;2023-09-19T02:57:50;12.20;99.90
52859;DHT22;38721;53.098;6.596;2023-09-19T03:00:17;12.20;99.90
52859;DHT22;38721;53.098;6.596;2023-09-19T03:02:56;12.30;99.90
52859;DHT22;38721;53.098;6.596;2023-09-19T03:05:23;12.40;99.90
52859;DHT22;38721;53.098;6.596;2023-09-19T03:07:49;12.50;99.90
52859;DHT22;38721;53.098;6.596;2023-09-19T03:10:18;12.60;99.90
52859;DHT22;38721;53.098;6.596;2023-09-19T03:12:44;12.60;99.90
52859;DHT22;38721;53.098;6.596;2023-09-19T03:15:10;12.60;99.90
52859;DHT22;38721;53.098;6.596;2023-09-19T03:17:36;12.60;99.90
52859;DHT22;38721;53.098;6.596;2023-09-19T03:20:03;12.60;99.90
52859;DHT22;38721;53.098;6.596;2023-09-19T03:22:30;12.50;99.90
52859;DHT22;38721;53.098;6.596;2023-09-19T03:24:55;12.50;99.90
52859;DHT22;38721;53.098;6.596;2023-09-19T03:27:21;12.50;99.90
52859;DHT22;38721;53.098;6.596;2023-09-19T03:29:50;12.40;99.90
52859;DHT22;38721;53.098;6.596;2023-09-19T03:32:15;12.40;99.90
52859;DHT22;38721;53.098;6.596;2023-09-19T03:34:41;12.40;99.90
52859;DHT22;38721;53.098;6.596;2023-09-19T03:37:09;12.40;99.90
52859;DHT22;38721;53.098;6.596;2023-09-19T03:39:35;12.40;99.90
52859;DHT22;38721;53.098;6.596;2023-09-19T03:42:01;12.40;99.90
52859;DHT22;38721;53.098;6.596;2023-09-19T03:44:27;12.40;99.90
52859;DHT22;38721;53.098;6.596;2023-09-19T03:46:52;12.40;99.90
52859;DHT22;38721;53.098;6.596;2023-09-19T03:49:18;12.40;99.90
52859;DHT22;38721;53.098;6.596;2023-09-19T03:51:44;12.40;99.90
52859;DHT22;38721;53.098;6.596;2023-09-19T03:54:10;12.40;99.90
52859;DHT22;38721;53.098;6.596;2023-09-19T03:56:35;12.40;99.90
52859;DHT22;38721;53.098;6.596;2023-09-19T03:59:01;12.50;99.90
52859;DHT22;38721;53.098;6.596;2023-09-19T04:01:27;12.60;99.90
52859;DHT22;38721;53.098;6.596;2023-09-19T04:03:53;12.60;99.90
52859;DHT22;38721;53.098;6.596;2023-09-19T04:06:19;12.70;99.90
52859;DHT22;38721;53.098;6.596;2023-09-19T04:08:44;12.70;99.90
52859;DHT22;38721;53.098;6.596;2023-09-19T04:11:11;12.70;99.90
52859;DHT22;38721;53.098;6.596;2023-09-19T04:13:37;12.80;99.90
52859;DHT22;38721;53.098;6.596;2023-09-19T04:16:03;12.80;99.90
52859;DHT22;38721;53.098;6.596;2023-09-19T04:18:41;12.80;99.90
52859;DHT22;38721;53.098;6.596;2023-09-19T04:21:06;12.90;99.90
52859;DHT22;38721;53.098;6.596;2023-09-19T04:23:32;12.90;99.90
52859;DHT22;38721;53.098;6.596;2023-09-19T04:25:58;13.00;99.90
52859;DHT22;38721;53.098;6.596;2023-09-19T04:28:24;13.00;99.90
52859;DHT22;38721;53.098;6.596;2023-09-19T04:30:50;13.10;99.90
52859;DHT22;38721;53.098;6.596;2023-09-19T04:33:16;13.10;99.90
52859;DHT22;38721;53.098;6.596;2023-09-19T04:35:42;13.00;99.90
52859;DHT22;38721;53.098;6.596;2023-09-19T04:38:08;13.00;99.90
52859;DHT22;38721;53.098;6.596;2023-09-19T04:40:34;13.00;99.90
52859;DHT22;38721;53.098;6.596;2023-09-19T04:43:00;13.00;99.90
52859;DHT22;38721;53.098;6.596;2023-09-19T04:45:27;13.00;99.90
52859;DHT22;38721;53.098;6.596;2023-09-19T04:47:54;13.00;99.90
52859;DHT22;38721;53.098;6.596;2023-09-19T04:50:20;13.10;99.90
52859;DHT22;38721;53.098;6.596;2023-09-19T04:52:49;13.10;99.90
52859;DHT22;38721;53.098;6.596;2023-09-19T04:55:17;13.20;99.90
52859;DHT22;38721;53.098;6.596;2023-09-19T04:57:48;13.20;99.90
52859;DHT22;38721;53.098;6.596;2023-09-19T05:00:15;13.20;99.90
52859;DHT22;38721;53.098;6.596;2023-09-19T05:02:43;13.20;99.90
52859;DHT22;38721;53.098;6.596;2023-09-19T05:05:09;13.20;99.90
52859;DHT22;38721;53.098;6.596;2023-09-19T05:07:55;13.20;99.90
52859;DHT22;38721;53.098;6.596;2023-09-19T05:10:21;13.20;99.90
52859;DHT22;38721;53.098;6.596;2023-09-19T05:12:47;13.20;99.90
52859;DHT22;38721;53.098;6.596;2023-09-19T05:15:14;13.10;99.90
52859;DHT22;38721;53.098;6.596;2023-09-19T05:17:48;13.10;99.90
52859;DHT22;38721;53.098;6.596;2023-09-19T05:20:15;13.10;99.90
52859;DHT22;38721;53.098;6.596;2023-09-19T05:23:02;13.10;99.90
52859;DHT22;38721;53.098;6.596;2023-09-19T05:25:30;13.10;99.90
52859;DHT22;38721;53.098;6.596;2023-09-19T05:27:57;13.10;99.90
52859;DHT22;38721;53.098;6.596;2023-09-19T05:30:27;13.10;99.90
52859;DHT22;38721;53.098;6.596;2023-09-19T05:32:53;13.10;99.90
52859;DHT22;38721;53.098;6.596;2023-09-19T05:35:20;13.10;99.90
52859;DHT22;38721;53.098;6.596;2023-09-19T05:37:47;13.10;99.90
52859;DHT22;38721;53.098;6.596;2023-09-19T05:40:19;13.20;99.90
52859;DHT22;38721;53.098;6.596;2023-09-19T05:42:45;13.20;99.90
52859;DHT22;38721;53.098;6.596;2023-09-19T05:45:12;13.20;99.90
52859;DHT22;38721;53.098;6.596;2023-09-19T05:47:41;13.20;99.90
52859;DHT22;38721;53.098;6.596;2023-09-19T05:50:09;13.20;99.90
52859;DHT22;38721;53.098;6.596;2023-09-19T05:52:38;13.20;99.90
52859;DHT22;38721;53.098;6.596;2023-09-19T05:55:05;13.30;99.90
52859;DHT22;38721;53.098;6.596;2023-09-19T05:57:33;13.30;99.90
52859;DHT22;38721;53.098;6.596;2023-09-19T05:59:58;13.40;99.90
52859;DHT22;38721;53.098;6.596;2023-09-19T06:02:24;13.40;99.90
52859;DHT22;38721;53.098;6.596;2023-09-19T06:04:54;13.40;99.90
52859;DHT22;38721;53.098;6.596;2023-09-19T06:07:21;13.40;99.90
52859;DHT22;38721;53.098;6.596;2023-09-19T06:09:53;13.50;99.90
52859;DHT22;38721;53.098;6.596;2023-09-19T06:12:19;13.50;99.90
52859;DHT22;38721;53.098;6.596;2023-09-19T06:14:45;13.50;99.90
52859;DHT22;38721;53.098;6.596;2023-09-19T06:17:10;13.60;99.90
52859;DHT22;38721;53.098;6.596;2023-09-19T06:19:36;13.60;99.90
52859;DHT22;38721;53.098;6.596;2023-09-19T06:22:02;13.70;99.90
52859;DHT22;38721;53.098;6.596;2023-09-19T06:24:29;13.70;99.90
52859;DHT22;38721;53.098;6.596;2023-09-19T06:26:54;13.80;99.90
52859;DHT22;38721;53.098;6.596;2023-09-19T06:29:20;13.80;99.90
52859;DHT22;38721;53.098;6.596;2023-09-19T06:31:48;13.80;99.90
52859;DHT22;38721;53.098;6.596;2023-09-19T06:34:14;13.90;99.90
52859;DHT22;38721;53.098;6.596;2023-09-19T06:36:41;14.00;99.90
52859;DHT22;38721;53.098;6.596;2023-09-19T06:39:07;13.90;99.90
52859;DHT22;38721;53.098;6.596;2023-09-19T06:41:37;14.00;99.90
52859;DHT22;38721;53.098;6.596;2023-09-19T06:44:05;14.00;99.90
52859;DHT22;38721;53.098;6.596;2023-09-19T06:46:31;14.00;99.90
52859;DHT22;38721;53.098;6.596;2023-09-19T06:49:01;14.10;99.90
52859;DHT22;38721;53.098;6.596;2023-09-19T06:51:28;14.10;99.90
52859;DHT22;38721;53.098;6.596;2023-09-19T06:53:55;14.20;99.90
52859;DHT22;38721;53.098;6.596;2023-09-19T06:56:22;14.30;99.90
52859;DHT22;38721;53.098;6.596;2023-09-19T06:58:50;14.40;99.90
52859;DHT22;38721;53.098;6.596;2023-09-19T07:01:15;14.50;99.90
52859;DHT22;38721;53.098;6.596;2023-09-19T07:03:41;14.60;99.90
52859;DHT22;38721;53.098;6.596;2023-09-19T07:06:07;14.60;99.90
52859;DHT22;38721;53.098;6.596;2023-09-19T07:08:33;14.60;99.90
52859;DHT22;38721;53.098;6.596;2023-09-19T07:10:59;14.60;99.90
52859;DHT22;38721;53.098;6.596;2023-09-19T07:13:25;14.60;99.90
52859;DHT22;38721;53.098;6.596;2023-09-19T07:15:51;14.70;99.90
52859;DHT22;38721;53.098;6.596;2023-09-19T07:18:17;14.80;99.90
52859;DHT22;38721;53.098;6.596;2023-09-19T07:20:46;14.80;99.90
52859;DHT22;38721;53.098;6.596;2023-09-19T07:23:21;14.90;99.90
52859;DHT22;38721;53.098;6.596;2023-09-19T07:25:49;15.10;99.90
52859;DHT22;38721;53.098;6.596;2023-09-19T07:28:16;15.00;99.90
52859;DHT22;38721;53.098;6.596;2023-09-19T07:30:42;15.10;99.90
52859;DHT22;38721;53.098;6.596;2023-09-19T07:33:07;15.10;99.90
52859;DHT22;38721;53.098;6.596;2023-09-19T07:35:37;15.10;99.90
52859;DHT22;38721;53.098;6.596;2023-09-19T07:38:05;15.00;99.90
52859;DHT22;38721;53.098;6.596;2023-09-19T07:40:30;14.90;99.90
52859;DHT22;38721;53.098;6.596;2023-09-19T07:42:56;14.90;99.90
52859;DHT22;38721;53.098;6.596;2023-09-19T07:45:22;15.00;99.90
52859;DHT22;38721;53.098;6.596;2023-09-19T07:47:49;15.10;99.90
52859;DHT22;38721;53.098;6.596;2023-09-19T07:50:15;15.20;99.90
52859;DHT22;38721;53.098;6.596;2023-09-19T07:52:45;15.40;99.90
52859;DHT22;38721;53.098;6.596;2023-09-19T07:55:11;15.40;99.90
52859;DHT22;38721;53.098;6.596;2023-09-19T07:57:41;15.40;99.90
52859;DHT22;38721;53.098;6.596;2023-09-19T08:00:08;15.50;99.90
52859;DHT22;38721;53.098;6.596;2023-09-19T08:02:39;15.50;99.90
52859;DHT22;38721;53.098;6.596;2023-09-19T08:05:06;15.50;99.90
52859;DHT22;38721;53.098;6.596;2023-09-19T08:07:38;15.80;99.90
52859;DHT22;38721;53.098;6.596;2023-09-19T08:10:05;15.70;99.90
52859;DHT22;38721;53.098;6.596;2023-09-19T08:12:45;15.80;99.90
52859;DHT22;38721;53.098;6.596;2023-09-19T08:15:15;15.60;99.90
52859;DHT22;38721;53.098;6.596;2023-09-19T08:17:41;15.60;99.90
52859;DHT22;38721;53.098;6.596;2023-09-19T08:20:08;15.70;99.90
52859;DHT22;38721;53.098;6.596;2023-09-19T08:22:48;15.70;99.90
52859;DHT22;38721;53.098;6.596;2023-09-19T08:25:16;15.80;99.90
52859;DHT22;38721;53.098;6.596;2023-09-19T08:27:45;16.10;99.90
52859;DHT22;38721;53.098;6.596;2023-09-19T08:30:14;16.20;99.90
52859;DHT22;38721;53.098;6.596;2023-09-19T08:32:40;16.10;99.90
52859;DHT22;38721;53.098;6.596;2023-09-19T08:35:08;16.10;99.90
52859;DHT22;38721;53.098;6.596;2023-09-19T08:37:35;16.20;99.90
52859;DHT22;38721;53.098;6.596;2023-09-19T08:40:00;16.30;99.90
52859;DHT22;38721;53.098;6.596;2023-09-19T08:42:27;16.50;99.90
52859;DHT22;38721;53.098;6.596;2023-09-19T08:44:52;16.50;99.90
52859;DHT22;38721;53.098;6.596;2023-09-19T08:47:36;16.60;99.90
52859;DHT22;38721;53.098;6.596;2023-09-19T08:50:27;16.50;99.90
52859;DHT22;38721;53.098;6.596;2023-09-19T08:52:55;16.40;99.90
52859;DHT22;38721;53.098;6.596;2023-09-19T08:55:27;16.80;99.90
52859;DHT22;38721;53.098;6.596;2023-09-19T08:57:59;17.00;99.90
52859;DHT22;38721;53.098;6.596;2023-09-19T09:00:26;16.90;99.90
52859;DHT22;38721;53.098;6.596;2023-09-19T09:02:54;17.00;99.90
52859;DHT22;38721;53.098;6.596;2023-09-19T09:05:22;17.00;99.90
52859;DHT22;38721;53.098;6.596;2023-09-19T09:07:49;17.00;99.90
52859;DHT22;38721;53.098;6.596;2023-09-19T09:10:20;17.00;99.90
52859;DHT22;38721;53.098;6.596;2023-09-19T09:12:51;17.10;99.90
52859;DHT22;38721;53.098;6.596;2023-09-19T09:15:19;17.10;99.90
52859;DHT22;38721;53.098;6.596;2023-09-19T09:17:48;17.00;99.90
52859;DHT22;38721;53.098;6.596;2023-09-19T09:20:19;17.20;99.90
52859;DHT22;38721;53.098;6.596;2023-09-19T09:22:57;17.60;99.90
52859;DHT22;38721;53.098;6.596;2023-09-19T09:26:07;17.80;99.90
52859;DHT22;38721;53.098;6.596;2023-09-19T09:28:35;17.60;99.90
52859;DHT22;38721;53.098;6.596;2023-09-19T09:31:02;17.70;99.90
52859;DHT22;38721;53.098;6.596;2023-09-19T09:33:33;17.70;99.90
52859;DHT22;38721;53.098;6.596;2023-09-19T09:36:00;17.80;99.90
52859;DHT22;38721;53.098;6.596;2023-09-19T09:38:29;18.10;99.90
52859;DHT22;38721;53.098;6.596;2023-09-19T09:41:00;18.00;99.90
52859;DHT22;38721;53.098;6.596;2023-09-19T09:43:43;18.20;99.90
52859;DHT22;38721;53.098;6.596;2023-09-19T09:46:18;18.20;99.90
52859;DHT22;38721;53.098;6.596;2023-09-19T09:49:07;18.60;99.90
52859;DHT22;38721;53.098;6.596;2023-09-19T09:52:17;18.80;99.90
52859;DHT22;38721;53.098;6.596;2023-09-19T09:55:01;19.10;99.90
52859;DHT22;38721;53.098;6.596;2023-09-19T09:57:31;18.80;99.90
52859;DHT22;38721;53.098;6.596;2023-09-19T09:59:58;18.50;99.90
52859;DHT22;38721;53.098;6.596;2023-09-19T10:02:29;18.30;99.90
52859;DHT22;38721;53.098;6.596;2023-09-19T10:04:58;18.50;99.90
52859;DHT22;38721;53.098;6.596;2023-09-19T10:07:32;18.50;99.90
52859;DHT22;38721;53.098;6.596;2023-09-19T10:10:04;18.20;99.90
52859;DHT22;38721;53.098;6.596;2023-09-19T10:12:55;18.40;99.90
52859;DHT22;38721;53.098;6.596;2023-09-19T10:15:24;18.50;99.90
52859;DHT22;38721;53.098;6.596;2023-09-19T10:17:52;18.40;99.90
52859;DHT22;38721;53.098;6.596;2023-09-19T10:20:21;18.70;99.90
52859;DHT22;38721;53.098;6.596;2023-09-19T10:22:59;19.00;99.90
52859;DHT22;38721;53.098;6.596;2023-09-19T10:25:29;18.70;99.90
52859;DHT22;38721;53.098;6.596;2023-09-19T10:27:57;19.00;99.90
52859;DHT22;38721;53.098;6.596;2023-09-19T10:30:25;19.30;99.90
52859;DHT22;38721;53.098;6.596;2023-09-19T10:33:03;19.30;99.90
52859;DHT22;38721;53.098;6.596;2023-09-19T10:35:32;19.30;99.90
52859;DHT22;38721;53.098;6.596;2023-09-19T10:38:01;19.60;99.90
52859;DHT22;38721;53.098;6.596;2023-09-19T10:40:38;19.40;99.90
52859;DHT22;38721;53.098;6.596;2023-09-19T10:43:21;19.40;99.90
52859;DHT22;38721;53.098;6.596;2023-09-19T10:45:50;19.50;99.90
52859;DHT22;38721;53.098;6.596;2023-09-19T10:48:19;19.90;99.90
52859;DHT22;38721;53.098;6.596;2023-09-19T10:53:27;19.50;99.90
52859;DHT22;38721;53.098;6.596;2023-09-19T10:55:57;19.30;99.90
52859;DHT22;38721;53.098;6.596;2023-09-19T10:58:29;19.50;99.90
52859;DHT22;38721;53.098;6.596;2023-09-19T11:01:00;19.80;99.90
52859;DHT22;38721;53.098;6.596;2023-09-19T11:03:33;19.70;99.90
52859;DHT22;38721;53.098;6.596;2023-09-19T11:06:19;19.80;99.90
52859;DHT22;38721;53.098;6.596;2023-09-19T11:16:39;19.80;99.90
52859;DHT22;38721;53.098;6.596;2023-09-19T11:19:05;19.50;99.90
52859;DHT22;38721;53.098;6.596;2023-09-19T11:21:42;19.30;99.90
52859;DHT22;38721;53.098;6.596;2023-09-19T11:26:48;18.80;99.90
52859;DHT22;38721;53.098;6.596;2023-09-19T11:29:30;19.10;99.90
52859;DHT22;38721;53.098;6.596;2023-09-19T11:31:57;19.20;99.90
52859;DHT22;38721;53.098;6.596;2023-09-19T11:39:37;19.10;99.90
52859;DHT22;38721;53.098;6.596;2023-09-19T11:42:44;19.00;99.90
52859;DHT22;38721;53.098;6.596;2023-09-19T11:48:06;19.20;99.90
52859;DHT22;38721;53.098;6.596;2023-09-19T11:50:32;19.60;99.90
52859;DHT22;38721;53.098;6.596;2023-09-19T11:53:00;19.80;99.90
52859;DHT22;38721;53.098;6.596;2023-09-19T11:55:28;19.70;99.90
52859;DHT22;38721;53.098;6.596;2023-09-19T11:58:20;19.70;99.90
52859;DHT22;38721;53.098;6.596;2023-09-19T12:00:54;19.60;99.90
52859;DHT22;38721;53.098;6.596;2023-09-19T12:03:32;19.50;99.90
52859;DHT22;38721;53.098;6.596;2023-09-19T12:05:59;19.50;99.90
52859;DHT22;38721;53.098;6.596;2023-09-19T12:08:24;19.50;99.90
52859;DHT22;38721;53.098;6.596;2023-09-19T12:10:53;19.60;99.90
52859;DHT22;38721;53.098;6.596;2023-09-19T12:13:20;19.70;99.90
52859;DHT22;38721;53.098;6.596;2023-09-19T12:15:46;19.70;99.90
52859;DHT22;38721;53.098;6.596;2023-09-19T12:18:30;19.50;99.90
52859;DHT22;38721;53.098;6.596;2023-09-19T12:20:56;19.40;99.90
52859;DHT22;38721;53.098;6.596;2023-09-19T12:23:23;19.20;99.90
52859;DHT22;38721;53.098;6.596;2023-09-19T12:25:51;18.90;99.90
52859;DHT22;38721;53.098;6.596;2023-09-19T12:28:19;18.90;99.90
52859;DHT22;38721;53.098;6.596;2023-09-19T12:30:48;18.90;99.90
52859;DHT22;38721;53.098;6.596;2023-09-19T12:33:18;18.80;99.90
52859;DHT22;38721;53.098;6.596;2023-09-19T12:35:45;18.80;99.90
52859;DHT22;38721;53.098;6.596;2023-09-19T12:38:21;19.10;99.90
52859;DHT22;38721;53.098;6.596;2023-09-19T12:40:50;19.60;99.90
52859;DHT22;38721;53.098;6.596;2023-09-19T12:43:18;19.70;99.90
52859;DHT22;38721;53.098;6.596;2023-09-19T12:45:44;19.60;99.90
52859;DHT22;38721;53.098;6.596;2023-09-19T12:48:26;19.50;99.90
52859;DHT22;38721;53.098;6.596;2023-09-19T12:51:11;19.40;99.90
52859;DHT22;38721;53.098;6.596;2023-09-19T12:53:45;19.50;99.90
52859;DHT22;38721;53.098;6.596;2023-09-19T12:56:18;19.60;99.90
52859;DHT22;38721;53.098;6.596;2023-09-19T12:58:55;19.60;99.90
52859;DHT22;38721;53.098;6.596;2023-09-19T13:01:25;19.10;99.90
52859;DHT22;38721;53.098;6.596;2023-09-19T13:06:44;18.80;99.90
52859;DHT22;38721;53.098;6.596;2023-09-19T13:09:11;18.70;99.90
52859;DHT22;38721;53.098;6.596;2023-09-19T13:11:37;18.70;99.90
52859;DHT22;38721;53.098;6.596;2023-09-19T13:14:22;18.60;99.90
52859;DHT22;38721;53.098;6.596;2023-09-19T13:17:08;18.80;99.90
52859;DHT22;38721;53.098;6.596;2023-09-19T13:19:46;18.70;99.90
52859;DHT22;38721;53.098;6.596;2023-09-19T13:22:40;18.60;99.90
52859;DHT22;38721;53.098;6.596;2023-09-19T13:25:18;18.60;99.90
52859;DHT22;38721;53.098;6.596;2023-09-19T13:27:46;18.50;99.90
52859;DHT22;38721;53.098;6.596;2023-09-19T13:30:14;18.50;99.90
52859;DHT22;38721;53.098;6.596;2023-09-19T13:32:40;18.40;99.90
52859;DHT22;38721;53.098;6.596;2023-09-19T13:35:07;18.30;99.90
52859;DHT22;38721;53.098;6.596;2023-09-19T13:37:37;18.30;99.90
52859;DHT22;38721;53.098;6.596;2023-09-19T13:40:10;18.20;99.90
52859;DHT22;38721;53.098;6.596;2023-09-19T13:42:37;18.30;99.90
52859;DHT22;38721;53.098;6.596;2023-09-19T13:45:06;18.20;99.90
52859;DHT22;38721;53.098;6.596;2023-09-19T13:47:33;18.10;99.90
52859;DHT22;38721;53.098;6.596;2023-09-19T13:50:02;18.00;99.90
52859;DHT22;38721;53.098;6.596;2023-09-19T13:52:32;18.00;99.90
52859;DHT22;38721;53.098;6.596;2023-09-19T13:55:01;18.10;99.90
52859;DHT22;38721;53.098;6.596;2023-09-19T13:57:27;18.20;99.90
52859;DHT22;38721;53.098;6.596;2023-09-19T13:59:53;18.30;99.90
52859;DHT22;38721;53.098;6.596;2023-09-19T14:02:24;18.80;99.90
52859;DHT22;38721;53.098;6.596;2023-09-19T14:04:53;19.00;99.90
52859;DHT22;38721;53.098;6.596;2023-09-19T14:07:19;19.10;99.90
52859;DHT22;38721;53.098;6.596;2023-09-19T14:09:45;18.80;99.90
52859;DHT22;38721;53.098;6.596;2023-09-19T14:12:12;18.80;99.90
52859;DHT22;38721;53.098;6.596;2023-09-19T14:14:38;18.60;99.90
52859;DHT22;38721;53.098;6.596;2023-09-19T14:17:04;18.50;99.90
52859;DHT22;38721;53.098;6.596;2023-09-19T14:19:33;18.80;99.90
52859;DHT22;38721;53.098;6.596;2023-09-19T14:22:00;18.60;99.90
52859;DHT22;38721;53.098;6.596;2023-09-19T14:24:32;18.50;99.90
52859;DHT22;38721;53.098;6.596;2023-09-19T14:26:58;18.60;99.90
52859;DHT22;38721;53.098;6.596;2023-09-19T14:29:25;18.50;99.90
52859;DHT22;38721;53.098;6.596;2023-09-19T14:31:50;18.60;99.90
52859;DHT22;38721;53.098;6.596;2023-09-19T14:34:17;18.50;99.90
52859;DHT22;38721;53.098;6.596;2023-09-19T14:36:43;18.60;99.90
52859;DHT22;38721;53.098;6.596;2023-09-19T14:39:08;18.50;99.90
52859;DHT22;38721;53.098;6.596;2023-09-19T14:41:34;18.60;99.90
52859;DHT22;38721;53.098;6.596;2023-09-19T14:44:02;18.60;99.90
52859;DHT22;38721;53.098;6.596;2023-09-19T14:46:29;18.50;99.90
52859;DHT22;38721;53.098;6.596;2023-09-19T14:48:56;18.50;99.90
52859;DHT22;38721;53.098;6.596;2023-09-19T14:51:25;18.50;99.90
52859;DHT22;38721;53.098;6.596;2023-09-19T14:53:51;18.50;99.90
52859;DHT22;38721;53.098;6.596;2023-09-19T14:56:17;18.50;99.90
52859;DHT22;38721;53.098;6.596;2023-09-19T14:58:45;18.40;99.90
52859;DHT22;38721;53.098;6.596;2023-09-19T15:01:12;18.40;99.90
52859;DHT22;38721;53.098;6.596;2023-09-19T15:03:40;18.30;99.90
52859;DHT22;38721;53.098;6.596;2023-09-19T15:06:11;18.30;99.90
52859;DHT22;38721;53.098;6.596;2023-09-19T15:08:40;18.30;99.90
52859;DHT22;38721;53.098;6.596;2023-09-19T15:11:09;18.40;99.90
52859;DHT22;38721;53.098;6.596;2023-09-19T15:13:35;18.20;99.90
52859;DHT22;38721;53.098;6.596;2023-09-19T15:16:06;18.20;99.90
52859;DHT22;38721;53.098;6.596;2023-09-19T15:18:36;18.20;99.90
52859;DHT22;38721;53.098;6.596;2023-09-19T15:21:21;18.20;99.90
52859;DHT22;38721;53.098;6.596;2023-09-19T15:23:46;18.00;99.90
52859;DHT22;38721;53.098;6.596;2023-09-19T15:26:14;18.00;99.90
52859;DHT22;38721;53.098;6.596;2023-09-19T15:28:42;17.90;99.90
52859;DHT22;38721;53.098;6.596;2023-09-19T15:31:10;17.70;99.90
52859;DHT22;38721;53.098;6.596;2023-09-19T15:33:37;17.70;99.90
52859;DHT22;38721;53.098;6.596;2023-09-19T15:36:06;17.60;99.90
52859;DHT22;38721;53.098;6.596;2023-09-19T15:38:57;17.60;99.90
52859;DHT22;38721;53.098;6.596;2023-09-19T15:41:28;17.60;99.90
52859;DHT22;38721;53.098;6.596;2023-09-19T15:43:56;17.60;99.90
52859;DHT22;38721;53.098;6.596;2023-09-19T15:46:22;17.60;99.90
52859;DHT22;38721;53.098;6.596;2023-09-19T15:48:48;17.60;99.90
52859;DHT22;38721;53.098;6.596;2023-09-19T15:51:14;17.50;99.90
52859;DHT22;38721;53.098;6.596;2023-09-19T15:53:45;17.50;99.90
52859;DHT22;38721;53.098;6.596;2023-09-19T15:56:18;17.60;99.90
52859;DHT22;38721;53.098;6.596;2023-09-19T15:58:44;17.50;99.90
52859;DHT22;38721;53.098;6.596;2023-09-19T16:01:10;17.50;99.90
52859;DHT22;38721;53.098;6.596;2023-09-19T16:03:37;17.40;99.90
52859;DHT22;38721;53.098;6.596;2023-09-19T16:06:11;17.40;99.90
52859;DHT22;38721;53.098;6.596;2023-09-19T16:08:43;17.40;99.90
52859;DHT22;38721;53.098;6.596;2023-09-19T16:11:10;17.40;99.90
52859;DHT22;38721;53.098;6.596;2023-09-19T16:13:39;17.40;99.90
52859;DHT22;38721;53.098;6.596;2023-09-19T16:16:10;17.40;99.90
52859;DHT22;38721;53.098;6.596;2023-09-19T16:18:51;17.50;99.90
52859;DHT22;38721;53.098;6.596;2023-09-19T16:21:18;17.50;99.90
52859;DHT22;38721;53.098;6.596;2023-09-19T16:23:48;17.50;99.90
52859;DHT22;38721;53.098;6.596;2023-09-19T16:26:19;17.60;99.90